sensor_id;sensor_type;location;lat;lon;timestamp;P1;P2;P0
77515;PMS5003;66627;29.424;-98.496;2023-04-28T00:00:25;2;0;
77515;PMS5003;66627;29.424;-98.496;2023-04-28T00:02:51;0;0;
77515;PMS5003;66627;29.424;-98.496;2023-04-28T00:05:16;0;0;
77515;PMS5003;66627;29.424;-98.496;2023-04-28T00:07:41;0;0;
77515;PMS5003;66627;29.424;-98.496;2023-04-28T00:10:06;1;1;
77515;PMS5003;66627;29.424;-98.496;2023-04-28T00:14:56;1;1;
77515;PMS5003;66627;29.424;-98.496;2023-04-28T00:17:21;1;1;
77515;PMS5003;66627;29.424;-98.496;2023-04-28T00:19:46;1;1;
77515;PMS5003;66627;29.424;-98.496;2023-04-28T00:22:12;3;1;
77515;PMS5003;66627;29.424;-98.496;2023-04-28T00:24:37;0;0;
77515;PMS5003;66627;29.424;-98.496;2023-04-28T00:27:02;1;1;
77515;PMS5003;66627;29.424;-98.496;2023-04-28T00:29:28;2;0;
77515;PMS5003;66627;29.424;-98.496;2023-04-28T00:31:52;1;1;
77515;PMS5003;66627;29.424;-98.496;2023-04-28T00:34:17;2;1;
77515;PMS5003;66627;29.424;-98.496;2023-04-28T00:36:42;1;1;
77515;PMS5003;66627;29.424;-98.496;2023-04-28T00:39:08;1;1;
77515;PMS5003;66627;29.424;-98.496;2023-04-28T00:41:33;2;2;
77515;PMS5003;66627;29.424;-98.496;2023-04-28T00:43:58;1;1;
77515;PMS5003;66627;29.424;-98.496;2023-04-28T00:46:26;1;1;
77515;PMS5003;66627;29.424;-98.496;2023-04-28T00:48:49;0;0;
77515;PMS5003;66627;29.424;-98.496;2023-04-28T00:51:14;3;3;
77515;PMS5003;66627;29.424;-98.496;2023-04-28T00:53:39;1;1;
77515;PMS5003;66627;29.424;-98.496;2023-04-28T00:56:04;3;2;
77515;PMS5003;66627;29.424;-98.496;2023-04-28T00:58:29;2;2;
77515;PMS5003;66627;29.424;-98.496;2023-04-28T01:03:20;2;2;
77515;PMS5003;66627;29.424;-98.496;2023-04-28T01:05:45;1;0;
77515;PMS5003;66627;29.424;-98.496;2023-04-28T01:08:10;1;1;
77515;PMS5003;66627;29.424;-98.496;2023-04-28T01:10:35;2;2;
77515;PMS5003;66627;29.424;-98.496;2023-04-28T01:13:00;2;2;
77515;PMS5003;66627;29.424;-98.496;2023-04-28T01:15:26;5;3;
77515;PMS5003;66627;29.424;-98.496;2023-04-28T01:17:50;3;3;
77515;PMS5003;66627;29.424;-98.496;2023-04-28T01:20:16;2;2;
77515;PMS5003;66627;29.424;-98.496;2023-04-28T01:22:41;3;3;
77515;PMS5003;66627;29.424;-98.496;2023-04-28T01:25:06;2;2;
77515;PMS5003;66627;29.424;-98.496;2023-04-28T01:27:31;3;2;
77515;PMS5003;66627;29.424;-98.496;2023-04-28T01:29:56;2;2;
77515;PMS5003;66627;29.424;-98.496;2023-04-28T01:32:21;3;3;
77515;PMS5003;66627;29.424;-98.496;2023-04-28T01:34:46;3;3;
77515;PMS5003;66627;29.424;-98.496;2023-04-28T01:37:12;4;4;
77515;PMS5003;66627;29.424;-98.496;2023-04-28T01:39:37;5;2;
77515;PMS5003;66627;29.424;-98.496;2023-04-28T01:42:02;4;3;
77515;PMS5003;66627;29.424;-98.496;2023-04-28T01:44:27;3;3;
77515;PMS5003;66627;29.424;-98.496;2023-04-28T01:46:52;5;4;
77515;PMS5003;66627;29.424;-98.496;2023-04-28T01:49:17;4;4;
77515;PMS5003;66627;29.424;-98.496;2023-04-28T01:51:43;5;5;
77515;PMS5003;66627;29.424;-98.496;2023-04-28T01:54:08;8;7;
77515;PMS5003;66627;29.424;-98.496;2023-04-28T01:56:33;7;7;
77515;PMS5003;66627;29.424;-98.496;2023-04-28T01:58:58;8;7;
77515;PMS5003;66627;29.424;-98.496;2023-04-28T02:01:23;8;7;
77515;PMS5003;66627;29.424;-98.496;2023-04-28T02:03:49;8;7;
77515;PMS5003;66627;29.424;-98.496;2023-04-28T02:06:14;10;10;
77515;PMS5003;66627;29.424;-98.496;2023-04-28T02:08:39;8;7;
77515;PMS5003;66627;29.424;-98.496;2023-04-28T02:11:04;10;10;
77515;PMS5003;66627;29.424;-98.496;2023-04-28T02:13:30;10;9;
77515;PMS5003;66627;29.424;-98.496;2023-04-28T02:15:55;9;9;
77515;PMS5003;66627;29.424;-98.496;2023-04-28T02:18:20;8;8;
77515;PMS5003;66627;29.424;-98.496;2023-04-28T02:20:45;13;8;
77515;PMS5003;66627;29.424;-98.496;2023-04-28T02:23:11;14;14;
77515;PMS5003;66627;29.424;-98.496;2023-04-28T02:25:35;11;11;
77515;PMS5003;66627;29.424;-98.496;2023-04-28T02:28:01;12;12;
77515;PMS5003;66627;29.424;-98.496;2023-04-28T02:30:26;5;5;
77515;PMS5003;66627;29.424;-98.496;2023-04-28T02:32:52;7;7;
77515;PMS5003;66627;29.424;-98.496;2023-04-28T02:35:18;7;7;
77515;PMS5003;66627;29.424;-98.496;2023-04-28T02:37:43;8;6;
77515;PMS5003;66627;29.424;-98.496;2023-04-28T02:40:09;10;7;
77515;PMS5003;66627;29.424;-98.496;2023-04-28T02:42:33;8;8;
77515;PMS5003;66627;29.424;-98.496;2023-04-28T02:44:58;9;8;
77515;PMS5003;66627;29.424;-98.496;2023-04-28T02:47:23;11;10;
77515;PMS5003;66627;29.424;-98.496;2023-04-28T02:49:48;12;10;
77515;PMS5003;66627;29.424;-98.496;2023-04-28T02:52:14;7;7;
77515;PMS5003;66627;29.424;-98.496;2023-04-28T02:54:38;12;10;
77515;PMS5003;66627;29.424;-98.496;2023-04-28T02:57:04;7;7;
77515;PMS5003;66627;29.424;-98.496;2023-04-28T02:59:29;11;10;
77515;PMS5003;66627;29.424;-98.496;2023-04-28T03:01:55;10;9;
77515;PMS5003;66627;29.424;-98.496;2023-04-28T03:04:20;9;7;
77515;PMS5003;66627;29.424;-98.496;2023-04-28T03:06:45;8;8;
77515;PMS5003;66627;29.424;-98.496;2023-04-28T03:09:15;8;7;
77515;PMS5003;66627;29.424;-98.496;2023-04-28T03:11:35;8;8;
77515;PMS5003;66627;29.424;-98.496;2023-04-28T03:14:01;6;6;
77515;PMS5003;66627;29.424;-98.496;2023-04-28T03:16:26;9;9;
77515;PMS5003;66627;29.424;-98.496;2023-04-28T03:18:51;7;6;
77515;PMS5003;66627;29.424;-98.496;2023-04-28T03:21:17;8;8;
77515;PMS5003;66627;29.424;-98.496;2023-04-28T03:23:41;9;8;
77515;PMS5003;66627;29.424;-98.496;2023-04-28T03:26:07;7;7;
77515;PMS5003;66627;29.424;-98.496;2023-04-28T03:28:32;9;8;
77515;PMS5003;66627;29.424;-98.496;2023-04-28T03:30:58;8;7;
77515;PMS5003;66627;29.424;-98.496;2023-04-28T03:33:23;9;9;
77515;PMS5003;66627;29.424;-98.496;2023-04-28T03:35:49;9;6;
77515;PMS5003;66627;29.424;-98.496;2023-04-28T03:38:14;8;8;
77515;PMS5003;66627;29.424;-98.496;2023-04-28T03:40:39;6;6;
77515;PMS5003;66627;29.424;-98.496;2023-04-28T03:43:04;7;7;
77515;PMS5003;66627;29.424;-98.496;2023-04-28T03:45:29;10;7;
77515;PMS5003;66627;29.424;-98.496;2023-04-28T03:47:55;8;8;
77515;PMS5003;66627;29.424;-98.496;2023-04-28T03:50:20;9;8;
77515;PMS5003;66627;29.424;-98.496;2023-04-28T03:52:45;6;6;
77515;PMS5003;66627;29.424;-98.496;2023-04-28T03:55:11;7;7;
77515;PMS5003;66627;29.424;-98.496;2023-04-28T03:57:36;6;6;
77515;PMS5003;66627;29.424;-98.496;2023-04-28T04:00:01;9;9;
77515;PMS5003;66627;29.424;-98.496;2023-04-28T04:02:26;7;6;
77515;PMS5003;66627;29.424;-98.496;2023-04-28T04:04:51;7;7;
77515;PMS5003;66627;29.424;-98.496;2023-04-28T04:07:16;9;9;
77515;PMS5003;66627;29.424;-98.496;2023-04-28T04:09:41;8;8;
77515;PMS5003;66627;29.424;-98.496;2023-04-28T04:12:07;6;6;
77515;PMS5003;66627;29.424;-98.496;2023-04-28T04:14:32;8;8;
77515;PMS5003;66627;29.424;-98.496;2023-04-28T04:16:57;8;8;
77515;PMS5003;66627;29.424;-98.496;2023-04-28T04:19:22;9;9;
77515;PMS5003;66627;29.424;-98.496;2023-04-28T04:21:47;11;9;
77515;PMS5003;66627;29.424;-98.496;2023-04-28T04:24:13;10;10;
77515;PMS5003;66627;29.424;-98.496;2023-04-28T04:26:38;9;8;
77515;PMS5003;66627;29.424;-98.496;2023-04-28T04:29:03;10;9;
77515;PMS5003;66627;29.424;-98.496;2023-04-28T04:31:28;11;10;
77515;PMS5003;66627;29.424;-98.496;2023-04-28T04:33:53;9;8;
77515;PMS5003;66627;29.424;-98.496;2023-04-28T04:36:19;7;7;
77515;PMS5003;66627;29.424;-98.496;2023-04-28T04:38:44;7;7;
77515;PMS5003;66627;29.424;-98.496;2023-04-28T04:41:09;9;9;
77515;PMS5003;66627;29.424;-98.496;2023-04-28T04:43:35;11;9;
77515;PMS5003;66627;29.424;-98.496;2023-04-28T04:46:00;12;9;
77515;PMS5003;66627;29.424;-98.496;2023-04-28T04:48:25;10;8;
77515;PMS5003;66627;29.424;-98.496;2023-04-28T04:50:51;8;8;
77515;PMS5003;66627;29.424;-98.496;2023-04-28T04:53:16;9;9;
77515;PMS5003;66627;29.424;-98.496;2023-04-28T04:55:42;10;9;
77515;PMS5003;66627;29.424;-98.496;2023-04-28T04:58:08;8;8;
77515;PMS5003;66627;29.424;-98.496;2023-04-28T05:00:32;12;12;
77515;PMS5003;66627;29.424;-98.496;2023-04-28T05:02:58;13;13;
77515;PMS5003;66627;29.424;-98.496;2023-04-28T05:05:24;9;9;
77515;PMS5003;66627;29.424;-98.496;2023-04-28T05:07:49;10;10;
77515;PMS5003;66627;29.424;-98.496;2023-04-28T05:10:14;12;11;
77515;PMS5003;66627;29.424;-98.496;2023-04-28T05:12:39;11;11;
77515;PMS5003;66627;29.424;-98.496;2023-04-28T05:15:05;10;10;
77515;PMS5003;66627;29.424;-98.496;2023-04-28T05:17:30;12;12;
77515;PMS5003;66627;29.424;-98.496;2023-04-28T05:19:56;15;13;
77515;PMS5003;66627;29.424;-98.496;2023-04-28T05:22:21;12;12;
77515;PMS5003;66627;29.424;-98.496;2023-04-28T05:24:46;11;10;
77515;PMS5003;66627;29.424;-98.496;2023-04-28T05:27:11;12;9;
77515;PMS5003;66627;29.424;-98.496;2023-04-28T05:29:37;12;10;
77515;PMS5003;66627;29.424;-98.496;2023-04-28T05:32:02;13;12;
77515;PMS5003;66627;29.424;-98.496;2023-04-28T05:34:27;11;11;
77515;PMS5003;66627;29.424;-98.496;2023-04-28T05:36:53;11;11;
77515;PMS5003;66627;29.424;-98.496;2023-04-28T05:39:19;13;13;
77515;PMS5003;66627;29.424;-98.496;2023-04-28T05:41:44;13;12;
77515;PMS5003;66627;29.424;-98.496;2023-04-28T05:44:10;11;11;
77515;PMS5003;66627;29.424;-98.496;2023-04-28T05:46:35;11;11;
77515;PMS5003;66627;29.424;-98.496;2023-04-28T05:49:01;14;14;
77515;PMS5003;66627;29.424;-98.496;2023-04-28T05:51:26;11;11;
77515;PMS5003;66627;29.424;-98.496;2023-04-28T05:53:52;13;13;
77515;PMS5003;66627;29.424;-98.496;2023-04-28T05:56:17;14;14;
77515;PMS5003;66627;29.424;-98.496;2023-04-28T05:58:42;14;11;
77515;PMS5003;66627;29.424;-98.496;2023-04-28T06:01:08;14;14;
77515;PMS5003;66627;29.424;-98.496;2023-04-28T06:03:33;16;13;
77515;PMS5003;66627;29.424;-98.496;2023-04-28T06:05:58;16;14;
77515;PMS5003;66627;29.424;-98.496;2023-04-28T06:08:24;16;14;
77515;PMS5003;66627;29.424;-98.496;2023-04-28T06:10:49;14;12;
77515;PMS5003;66627;29.424;-98.496;2023-04-28T06:13:14;14;13;
77515;PMS5003;66627;29.424;-98.496;2023-04-28T06:15:39;12;12;
77515;PMS5003;66627;29.424;-98.496;2023-04-28T06:18:05;12;12;
77515;PMS5003;66627;29.424;-98.496;2023-04-28T06:20:30;17;13;
77515;PMS5003;66627;29.424;-98.496;2023-04-28T06:22:56;12;12;
77515;PMS5003;66627;29.424;-98.496;2023-04-28T06:25:21;12;12;
77515;PMS5003;66627;29.424;-98.496;2023-04-28T06:27:47;16;15;
77515;PMS5003;66627;29.424;-98.496;2023-04-28T06:30:15;17;14;
77515;PMS5003;66627;29.424;-98.496;2023-04-28T06:32:38;13;12;
77515;PMS5003;66627;29.424;-98.496;2023-04-28T06:35:04;14;14;
77515;PMS5003;66627;29.424;-98.496;2023-04-28T06:37:28;14;13;
77515;PMS5003;66627;29.424;-98.496;2023-04-28T06:39:54;14;14;
77515;PMS5003;66627;29.424;-98.496;2023-04-28T06:42:20;15;14;
77515;PMS5003;66627;29.424;-98.496;2023-04-28T06:44:45;12;12;
77515;PMS5003;66627;29.424;-98.496;2023-04-28T06:47:11;12;12;
77515;PMS5003;66627;29.424;-98.496;2023-04-28T06:49:36;15;13;
77515;PMS5003;66627;29.424;-98.496;2023-04-28T06:52:02;13;13;
77515;PMS5003;66627;29.424;-98.496;2023-04-28T06:54:27;13;11;
77515;PMS5003;66627;29.424;-98.496;2023-04-28T06:56:52;15;15;
77515;PMS5003;66627;29.424;-98.496;2023-04-28T06:59:18;16;16;
77515;PMS5003;66627;29.424;-98.496;2023-04-28T07:01:43;12;11;
77515;PMS5003;66627;29.424;-98.496;2023-04-28T07:04:08;16;16;
77515;PMS5003;66627;29.424;-98.496;2023-04-28T07:06:33;12;11;
77515;PMS5003;66627;29.424;-98.496;2023-04-28T07:08:59;15;15;
77515;PMS5003;66627;29.424;-98.496;2023-04-28T07:11:24;13;13;
77515;PMS5003;66627;29.424;-98.496;2023-04-28T07:13:50;13;12;
77515;PMS5003;66627;29.424;-98.496;2023-04-28T07:16:15;12;12;
77515;PMS5003;66627;29.424;-98.496;2023-04-28T07:18:40;14;14;
77515;PMS5003;66627;29.424;-98.496;2023-04-28T07:21:05;16;16;
77515;PMS5003;66627;29.424;-98.496;2023-04-28T07:23:31;14;14;
77515;PMS5003;66627;29.424;-98.496;2023-04-28T07:25:56;15;15;
77515;PMS5003;66627;29.424;-98.496;2023-04-28T07:28:22;17;17;
77515;PMS5003;66627;29.424;-98.496;2023-04-28T07:30:48;18;18;
77515;PMS5003;66627;29.424;-98.496;2023-04-28T07:33:13;13;12;
77515;PMS5003;66627;29.424;-98.496;2023-04-28T07:35:39;16;14;
77515;PMS5003;66627;29.424;-98.496;2023-04-28T07:38:04;16;15;
77515;PMS5003;66627;29.424;-98.496;2023-04-28T07:40:30;15;15;
77515;PMS5003;66627;29.424;-98.496;2023-04-28T07:42:56;21;16;
77515;PMS5003;66627;29.424;-98.496;2023-04-28T07:45:21;13;13;
77515;PMS5003;66627;29.424;-98.496;2023-04-28T07:47:47;23;17;
77515;PMS5003;66627;29.424;-98.496;2023-04-28T07:50:13;13;13;
77515;PMS5003;66627;29.424;-98.496;2023-04-28T07:52:38;15;14;
77515;PMS5003;66627;29.424;-98.496;2023-04-28T07:55:04;18;17;
77515;PMS5003;66627;29.424;-98.496;2023-04-28T07:57:29;14;14;
77515;PMS5003;66627;29.424;-98.496;2023-04-28T07:59:55;20;15;
77515;PMS5003;66627;29.424;-98.496;2023-04-28T08:02:20;18;18;
77515;PMS5003;66627;29.424;-98.496;2023-04-28T08:04:46;13;13;
77515;PMS5003;66627;29.424;-98.496;2023-04-28T08:07:11;17;15;
77515;PMS5003;66627;29.424;-98.496;2023-04-28T08:09:37;15;15;
77515;PMS5003;66627;29.424;-98.496;2023-04-28T08:12:02;15;13;
77515;PMS5003;66627;29.424;-98.496;2023-04-28T08:14:27;16;16;
77515;PMS5003;66627;29.424;-98.496;2023-04-28T08:16:52;14;14;
77515;PMS5003;66627;29.424;-98.496;2023-04-28T08:19:18;18;16;
77515;PMS5003;66627;29.424;-98.496;2023-04-28T08:21:44;13;13;
77515;PMS5003;66627;29.424;-98.496;2023-04-28T08:24:09;21;17;
77515;PMS5003;66627;29.424;-98.496;2023-04-28T08:26:35;11;11;
77515;PMS5003;66627;29.424;-98.496;2023-04-28T08:29:00;17;17;
77515;PMS5003;66627;29.424;-98.496;2023-04-28T08:31:25;16;16;
77515;PMS5003;66627;29.424;-98.496;2023-04-28T08:33:50;20;17;
77515;PMS5003;66627;29.424;-98.496;2023-04-28T08:36:16;24;20;
77515;PMS5003;66627;29.424;-98.496;2023-04-28T08:38:42;17;15;
77515;PMS5003;66627;29.424;-98.496;2023-04-28T08:41:07;18;18;
77515;PMS5003;66627;29.424;-98.496;2023-04-28T08:43:34;21;21;
77515;PMS5003;66627;29.424;-98.496;2023-04-28T08:45:59;19;19;
77515;PMS5003;66627;29.424;-98.496;2023-04-28T08:48:24;16;14;
77515;PMS5003;66627;29.424;-98.496;2023-04-28T08:50:50;24;19;
77515;PMS5003;66627;29.424;-98.496;2023-04-28T08:53:17;23;22;
77515;PMS5003;66627;29.424;-98.496;2023-04-28T08:55:41;18;17;
77515;PMS5003;66627;29.424;-98.496;2023-04-28T08:58:07;19;19;
77515;PMS5003;66627;29.424;-98.496;2023-04-28T09:00:32;17;15;
77515;PMS5003;66627;29.424;-98.496;2023-04-28T09:02:58;17;15;
77515;PMS5003;66627;29.424;-98.496;2023-04-28T09:05:23;17;14;
77515;PMS5003;66627;29.424;-98.496;2023-04-28T09:07:49;23;19;
77515;PMS5003;66627;29.424;-98.496;2023-04-28T09:10:15;21;21;
77515;PMS5003;66627;29.424;-98.496;2023-04-28T09:12:40;15;14;
77515;PMS5003;66627;29.424;-98.496;2023-04-28T09:15:06;25;25;
77515;PMS5003;66627;29.424;-98.496;2023-04-28T09:17:31;25;22;
77515;PMS5003;66627;29.424;-98.496;2023-04-28T09:19:56;19;19;
77515;PMS5003;66627;29.424;-98.496;2023-04-28T09:22:25;19;19;
77515;PMS5003;66627;29.424;-98.496;2023-04-28T09:24:47;17;16;
77515;PMS5003;66627;29.424;-98.496;2023-04-28T09:27:13;18;18;
77515;PMS5003;66627;29.424;-98.496;2023-04-28T09:29:47;23;21;
77515;PMS5003;66627;29.424;-98.496;2023-04-28T09:32:12;26;22;
77515;PMS5003;66627;29.424;-98.496;2023-04-28T09:36:54;22;21;
77515;PMS5003;66627;29.424;-98.496;2023-04-28T09:41:45;21;20;
77515;PMS5003;66627;29.424;-98.496;2023-04-28T09:44:11;19;18;
77515;PMS5003;66627;29.424;-98.496;2023-04-28T09:46:36;21;16;
77515;PMS5003;66627;29.424;-98.496;2023-04-28T09:49:01;19;18;
77515;PMS5003;66627;29.424;-98.496;2023-04-28T09:51:27;22;18;
77515;PMS5003;66627;29.424;-98.496;2023-04-28T09:53:52;22;19;
77515;PMS5003;66627;29.424;-98.496;2023-04-28T09:56:18;21;18;
77515;PMS5003;66627;29.424;-98.496;2023-04-28T09:58:42;19;18;
77515;PMS5003;66627;29.424;-98.496;2023-04-28T10:01:07;16;15;
77515;PMS5003;66627;29.424;-98.496;2023-04-28T10:03:32;20;16;
77515;PMS5003;66627;29.424;-98.496;2023-04-28T10:05:58;20;16;
77515;PMS5003;66627;29.424;-98.496;2023-04-28T10:08:23;16;15;
77515;PMS5003;66627;29.424;-98.496;2023-04-28T10:10:49;20;15;
77515;PMS5003;66627;29.424;-98.496;2023-04-28T10:13:15;21;21;
77515;PMS5003;66627;29.424;-98.496;2023-04-28T10:15:39;22;21;
77515;PMS5003;66627;29.424;-98.496;2023-04-28T10:18:05;20;20;
77515;PMS5003;66627;29.424;-98.496;2023-04-28T10:20:30;21;18;
77515;PMS5003;66627;29.424;-98.496;2023-04-28T10:22:57;19;18;
77515;PMS5003;66627;29.424;-98.496;2023-04-28T10:25:25;18;17;
77515;PMS5003;66627;29.424;-98.496;2023-04-28T10:27:47;29;26;
77515;PMS5003;66627;29.424;-98.496;2023-04-28T10:30:12;29;25;
77515;PMS5003;66627;29.424;-98.496;2023-04-28T10:32:37;21;18;
77515;PMS5003;66627;29.424;-98.496;2023-04-28T10:44:44;25;19;
77515;PMS5003;66627;29.424;-98.496;2023-04-28T10:47:09;26;22;
77515;PMS5003;66627;29.424;-98.496;2023-04-28T10:52:00;25;24;
77515;PMS5003;66627;29.424;-98.496;2023-04-28T10:54:25;19;19;
77515;PMS5003;66627;29.424;-98.496;2023-04-28T10:59:25;19;19;
77515;PMS5003;66627;29.424;-98.496;2023-04-28T11:01:42;22;19;
77515;PMS5003;66627;29.424;-98.496;2023-04-28T11:04:08;20;19;
77515;PMS5003;66627;29.424;-98.496;2023-04-28T11:06:33;23;19;
77515;PMS5003;66627;29.424;-98.496;2023-04-28T11:08:58;21;21;
77515;PMS5003;66627;29.424;-98.496;2023-04-28T11:11:24;18;17;
77515;PMS5003;66627;29.424;-98.496;2023-04-28T11:13:49;19;19;
77515;PMS5003;66627;29.424;-98.496;2023-04-28T11:16:15;21;18;
77515;PMS5003;66627;29.424;-98.496;2023-04-28T11:21:05;17;17;
77515;PMS5003;66627;29.424;-98.496;2023-04-28T11:23:31;19;16;
77515;PMS5003;66627;29.424;-98.496;2023-04-28T11:25:56;23;23;
77515;PMS5003;66627;29.424;-98.496;2023-04-28T11:28:21;25;21;
77515;PMS5003;66627;29.424;-98.496;2023-04-28T11:30:47;20;18;
77515;PMS5003;66627;29.424;-98.496;2023-04-28T11:33:13;22;19;
77515;PMS5003;66627;29.424;-98.496;2023-04-28T11:35:40;21;17;
77515;PMS5003;66627;29.424;-98.496;2023-04-28T11:38:04;19;18;
77515;PMS5003;66627;29.424;-98.496;2023-04-28T11:40:29;20;17;
77515;PMS5003;66627;29.424;-98.496;2023-04-28T11:42:55;18;17;
77515;PMS5003;66627;29.424;-98.496;2023-04-28T11:45:20;21;18;
77515;PMS5003;66627;29.424;-98.496;2023-04-28T11:47:46;19;16;
77515;PMS5003;66627;29.424;-98.496;2023-04-28T11:50:11;22;20;
77515;PMS5003;66627;29.424;-98.496;2023-04-28T11:55:03;20;19;
77515;PMS5003;66627;29.424;-98.496;2023-04-28T11:57:27;15;15;
77515;PMS5003;66627;29.424;-98.496;2023-04-28T11:59:53;20;19;
77515;PMS5003;66627;29.424;-98.496;2023-04-28T12:04:43;21;18;
77515;PMS5003;66627;29.424;-98.496;2023-04-28T12:07:09;22;19;
77515;PMS5003;66627;29.424;-98.496;2023-04-28T12:09:35;21;20;
77515;PMS5003;66627;29.424;-98.496;2023-04-28T12:12:01;14;14;
77515;PMS5003;66627;29.424;-98.496;2023-04-28T12:14:26;19;18;
77515;PMS5003;66627;29.424;-98.496;2023-04-28T12:16:52;21;18;
77515;PMS5003;66627;29.424;-98.496;2023-04-28T12:19:17;19;14;
77515;PMS5003;66627;29.424;-98.496;2023-04-28T12:21:42;17;17;
77515;PMS5003;66627;29.424;-98.496;2023-04-28T12:24:14;16;15;
77515;PMS5003;66627;29.424;-98.496;2023-04-28T12:26:33;17;15;
77515;PMS5003;66627;29.424;-98.496;2023-04-28T12:28:59;18;17;
77515;PMS5003;66627;29.424;-98.496;2023-04-28T12:31:25;17;16;
77515;PMS5003;66627;29.424;-98.496;2023-04-28T12:33:50;15;14;
77515;PMS5003;66627;29.424;-98.496;2023-04-28T12:36:15;22;19;
77515;PMS5003;66627;29.424;-98.496;2023-04-28T12:41:06;18;17;
77515;PMS5003;66627;29.424;-98.496;2023-04-28T12:43:32;17;15;
77515;PMS5003;66627;29.424;-98.496;2023-04-28T12:45:57;21;16;
77515;PMS5003;66627;29.424;-98.496;2023-04-28T12:48:23;17;16;
77515;PMS5003;66627;29.424;-98.496;2023-04-28T12:50:48;20;18;
77515;PMS5003;66627;29.424;-98.496;2023-04-28T12:53:14;17;16;
77515;PMS5003;66627;29.424;-98.496;2023-04-28T12:55:39;14;14;
77515;PMS5003;66627;29.424;-98.496;2023-04-28T12:58:05;17;16;
77515;PMS5003;66627;29.424;-98.496;2023-04-28T13:00:30;17;17;
77515;PMS5003;66627;29.424;-98.496;2023-04-28T13:02:56;16;15;
77515;PMS5003;66627;29.424;-98.496;2023-04-28T13:05:21;18;16;
77515;PMS5003;66627;29.424;-98.496;2023-04-28T13:07:46;24;21;
77515;PMS5003;66627;29.424;-98.496;2023-04-28T13:10:11;16;14;
77515;PMS5003;66627;29.424;-98.496;2023-04-28T13:12:37;17;16;
77515;PMS5003;66627;29.424;-98.496;2023-04-28T13:15:03;14;13;
77515;PMS5003;66627;29.424;-98.496;2023-04-28T13:17:29;41;34;
77515;PMS5003;66627;29.424;-98.496;2023-04-28T13:19:54;12;12;
77515;PMS5003;66627;29.424;-98.496;2023-04-28T13:22:19;14;14;
77515;PMS5003;66627;29.424;-98.496;2023-04-28T13:24:45;13;13;
77515;PMS5003;66627;29.424;-98.496;2023-04-28T13:27:10;16;14;
77515;PMS5003;66627;29.424;-98.496;2023-04-28T13:29:36;19;16;
77515;PMS5003;66627;29.424;-98.496;2023-04-28T13:32:01;19;13;
77515;PMS5003;66627;29.424;-98.496;2023-04-28T13:34:27;18;16;
77515;PMS5003;66627;29.424;-98.496;2023-04-28T13:36:52;17;13;
77515;PMS5003;66627;29.424;-98.496;2023-04-28T13:39:18;14;13;
77515;PMS5003;66627;29.424;-98.496;2023-04-28T13:41:43;18;16;
77515;PMS5003;66627;29.424;-98.496;2023-04-28T13:44:09;23;19;
77515;PMS5003;66627;29.424;-98.496;2023-04-28T13:46:34;16;13;
77515;PMS5003;66627;29.424;-98.496;2023-04-28T13:49:00;14;14;
77515;PMS5003;66627;29.424;-98.496;2023-04-28T13:51:25;15;15;
77515;PMS5003;66627;29.424;-98.496;2023-04-28T13:53:50;18;15;
77515;PMS5003;66627;29.424;-98.496;2023-04-28T13:56:16;21;17;
77515;PMS5003;66627;29.424;-98.496;2023-04-28T13:58:41;16;16;
77515;PMS5003;66627;29.424;-98.496;2023-04-28T14:01:06;15;15;
77515;PMS5003;66627;29.424;-98.496;2023-04-28T14:03:32;17;17;
77515;PMS5003;66627;29.424;-98.496;2023-04-28T14:05:57;16;16;
77515;PMS5003;66627;29.424;-98.496;2023-04-28T14:08:23;14;12;
77515;PMS5003;66627;29.424;-98.496;2023-04-28T14:10:48;16;16;
77515;PMS5003;66627;29.424;-98.496;2023-04-28T14:13:13;15;14;
77515;PMS5003;66627;29.424;-98.496;2023-04-28T14:15:39;15;13;
77515;PMS5003;66627;29.424;-98.496;2023-04-28T14:18:04;14;13;
77515;PMS5003;66627;29.424;-98.496;2023-04-28T14:20:30;16;14;
77515;PMS5003;66627;29.424;-98.496;2023-04-28T14:22:55;15;15;
77515;PMS5003;66627;29.424;-98.496;2023-04-28T14:25:20;17;14;
77515;PMS5003;66627;29.424;-98.496;2023-04-28T14:27:47;12;11;
77515;PMS5003;66627;29.424;-98.496;2023-04-28T14:30:11;18;18;
77515;PMS5003;66627;29.424;-98.496;2023-04-28T14:32:37;14;13;
77515;PMS5003;66627;29.424;-98.496;2023-04-28T14:35:02;12;12;
77515;PMS5003;66627;29.424;-98.496;2023-04-28T14:37:27;16;16;
77515;PMS5003;66627;29.424;-98.496;2023-04-28T14:39:52;16;14;
77515;PMS5003;66627;29.424;-98.496;2023-04-28T14:42:17;11;11;
77515;PMS5003;66627;29.424;-98.496;2023-04-28T14:44:42;12;11;
77515;PMS5003;66627;29.424;-98.496;2023-04-28T14:47:08;14;13;
77515;PMS5003;66627;29.424;-98.496;2023-04-28T14:49:33;12;11;
77515;PMS5003;66627;29.424;-98.496;2023-04-28T14:51:58;14;12;
77515;PMS5003;66627;29.424;-98.496;2023-04-28T14:54:23;11;11;
77515;PMS5003;66627;29.424;-98.496;2023-04-28T14:56:49;11;11;
77515;PMS5003;66627;29.424;-98.496;2023-04-28T14:59:14;13;13;
77515;PMS5003;66627;29.424;-98.496;2023-04-28T15:01:40;9;9;
77515;PMS5003;66627;29.424;-98.496;2023-04-28T15:04:06;12;12;
77515;PMS5003;66627;29.424;-98.496;2023-04-28T15:06:31;10;10;
77515;PMS5003;66627;29.424;-98.496;2023-04-28T15:08:56;11;11;
77515;PMS5003;66627;29.424;-98.496;2023-04-28T15:11:22;17;16;
77515;PMS5003;66627;29.424;-98.496;2023-04-28T15:13:47;11;11;
77515;PMS5003;66627;29.424;-98.496;2023-04-28T15:16:12;16;12;
77515;PMS5003;66627;29.424;-98.496;2023-04-28T15:18:38;12;10;
77515;PMS5003;66627;29.424;-98.496;2023-04-28T15:21:03;11;11;
77515;PMS5003;66627;29.424;-98.496;2023-04-28T15:23:29;12;11;
77515;PMS5003;66627;29.424;-98.496;2023-04-28T15:25:54;13;12;
77515;PMS5003;66627;29.424;-98.496;2023-04-28T15:28:20;10;10;
77515;PMS5003;66627;29.424;-98.496;2023-04-28T15:30:45;13;10;
77515;PMS5003;66627;29.424;-98.496;2023-04-28T15:33:11;15;13;
77515;PMS5003;66627;29.424;-98.496;2023-04-28T15:35:36;11;9;
77515;PMS5003;66627;29.424;-98.496;2023-04-28T15:38:02;12;12;
77515;PMS5003;66627;29.424;-98.496;2023-04-28T15:40:27;12;12;
77515;PMS5003;66627;29.424;-98.496;2023-04-28T15:42:52;11;11;
77515;PMS5003;66627;29.424;-98.496;2023-04-28T15:45:18;12;10;
77515;PMS5003;66627;29.424;-98.496;2023-04-28T15:47:43;15;12;
77515;PMS5003;66627;29.424;-98.496;2023-04-28T15:50:10;15;12;
77515;PMS5003;66627;29.424;-98.496;2023-04-28T15:52:34;11;9;
77515;PMS5003;66627;29.424;-98.496;2023-04-28T15:54:59;12;11;
77515;PMS5003;66627;29.424;-98.496;2023-04-28T15:57:25;13;12;
77515;PMS5003;66627;29.424;-98.496;2023-04-28T15:59:50;11;9;
77515;PMS5003;66627;29.424;-98.496;2023-04-28T16:02:15;14;10;
77515;PMS5003;66627;29.424;-98.496;2023-04-28T16:04:41;14;10;
77515;PMS5003;66627;29.424;-98.496;2023-04-28T16:07:06;13;9;
77515;PMS5003;66627;29.424;-98.496;2023-04-28T16:09:31;12;12;
77515;PMS5003;66627;29.424;-98.496;2023-04-28T16:11:56;14;11;
77515;PMS5003;66627;29.424;-98.496;2023-04-28T16:14:22;10;9;